Time;durP1;ratioP1;P1;durP2;ratioP2;P2;SDS_P1;SDS_P2;PMS_P1;PMS_P2;Temp;Humidity;BMP_temperature;BMP_pressure;BME280_temperature;BME280_humidity;BME280_pressure;Samples;Min_cycle;Max_cycle;Signal;HPM_P1;HPM_P2
2022/09/04 00:02:29;;;;;;;5.75;3.00;;;10.70;99.90;;;;;;4894788;29;20269;-81
2022/09/04 00:05:12;;;;;;;2.75;1.85;;;11.20;99.90;;;;;;4878466;29;20206;-82
2022/09/04 00:07:59;;;;;;;3.35;2.28;;;10.40;99.90;;;;;;4879454;29;20304;-82
2022/09/04 00:10:49;;;;;;;2.05;1.70;;;10.40;99.90;;;;;;4879304;29;20185;-82
2022/09/04 00:13:25;;;;;;;1.80;1.70;;;10.70;99.90;;;;;;4879696;29;20263;-82
2022/09/04 00:16:01;;;;;;;1.80;1.63;;;10.40;99.90;;;;;;4880036;29;20695;-82
2022/09/04 00:18:45;;;;;;;2.17;1.95;;;10.50;99.90;;;;;;4879541;29;20269;-81
2022/09/04 00:21:16;;;;;;;2.15;1.42;;;10.40;99.90;;;;;;4879439;29;20193;-81
2022/09/04 00:23:58;;;;;;;3.78;2.17;;;10.70;99.90;;;;;;4879358;29;20182;-81
2022/09/04 00:26:45;;;;;;;2.85;2.55;;;10.40;99.90;;;;;;4879316;29;20699;-81
2022/09/04 00:29:41;;;;;;;3.47;2.80;;;10.50;99.90;;;;;;4879502;29;20658;-82
2022/09/04 00:32:26;;;;;;;1.80;1.70;;;10.30;99.90;;;;;;4879997;29;20181;-81
2022/09/04 00:34:51;;;;;;;2.45;1.98;;;10.30;99.90;;;;;;4879265;29;20266;-81
2022/09/04 00:37:21;;;;;;;1.88;1.60;;;10.40;99.90;;;;;;4879863;29;20596;-81
2022/09/04 00:39:57;;;;;;;1.80;1.70;;;10.60;99.90;;;;;;4879048;29;20557;-81
2022/09/04 00:43:12;;;;;;;3.53;2.67;;;10.40;99.90;;;;;;4879548;29;20706;-83
2022/09/04 00:45:46;;;;;;;1.67;1.55;;;10.60;99.90;;;;;;4821920;29;20195;-81
2022/09/04 00:48:54;;;;;;;2.58;2.38;;;10.30;99.90;;;;;;4876401;29;20768;-81
2022/09/04 00:51:59;;;;;;;1.55;1.42;;;10.30;99.90;;;;;;4834012;29;20626;-81
2022/09/04 00:54:46;;;;;;;4.53;2.20;;;10.30;99.90;;;;;;4879143;29;20193;-84
2022/09/04 00:57:50;;;;;;;2.88;2.17;;;10.30;99.90;;;;;;4878324;29;20190;-81
2022/09/04 01:00:21;;;;;;;2.80;2.28;;;10.20;99.90;;;;;;4879510;29;20178;-81
2022/09/04 01:02:58;;;;;;;2.13;1.93;;;10.60;99.90;;;;;;4879698;29;20204;-81
2022/09/04 01:05:48;;;;;;;2.50;1.63;;;10.00;99.90;;;;;;4883017;29;20182;-81
2022/09/04 01:08:49;;;;;;;1.73;1.60;;;10.50;99.90;;;;;;4883122;29;20198;-81
2022/09/04 01:11:51;;;;;;;3.13;2.55;;;10.20;99.90;;;;;;4825151;29;20654;-81
2022/09/04 01:14:21;;;;;;;2.75;2.50;;;10.00;99.90;;;;;;4897430;29;20531;-81
2022/09/04 01:16:58;;;;;;;2.43;2.23;;;10.50;99.90;;;;;;4881160;29;20193;-81
2022/09/04 01:19:30;;;;;;;2.03;1.83;;;10.50;99.90;;;;;;4882736;29;20209;-83
2022/09/04 01:22:23;;;;;;;3.13;2.03;;;10.20;99.90;;;;;;4882968;29;20186;-80
2022/09/04 01:24:52;;;;;;;3.27;2.00;;;;;;;;;;4882434;29;20258;-81
2022/09/04 01:27:26;;;;;;;1.43;1.33;;;9.90;99.90;;;;;;4882696;29;20659;-81
2022/09/04 01:30:13;;;;;;;1.70;1.60;;;10.00;99.90;;;;;;4881013;29;20182;-81
2022/09/04 01:32:42;;;;;;;5.57;2.60;;;10.30;99.90;;;;;;4880885;29;20276;-81
2022/09/04 01:35:33;;;;;;;2.13;1.93;;;10.10;99.90;;;;;;4881205;29;20192;-80
2022/09/04 01:38:02;;;;;;;2.57;2.07;;;10.10;99.90;;;;;;4881397;29;20194;-81
2022/09/04 01:40:38;;;;;;;3.83;2.23;;;10.30;99.90;;;;;;4882263;29;20182;-80
2022/09/04 01:43:17;;;;;;;2.30;1.97;;;10.30;99.90;;;;;;4881183;29;20186;-81
2022/09/04 01:46:07;;;;;;;1.52;1.30;;;9.70;99.90;;;;;;4880857;29;20266;-81
2022/09/04 01:48:33;;;;;;;5.07;1.70;;;10.10;99.90;;;;;;4882253;29;20208;-82
2022/09/04 01:51:05;;;;;;;3.03;1.40;;;10.00;99.90;;;;;;4882331;29;20541;-81
2022/09/04 01:53:35;;;;;;;3.78;2.17;;;10.10;99.90;;;;;;4882167;29;20510;-81
2022/09/04 01:56:06;;;;;;;3.47;2.27;;;10.00;99.90;;;;;;4881140;29;20624;-81
2022/09/04 01:58:34;;;;;;;2.73;1.83;;;;;;;;;;4880908;29;20194;-81
2022/09/04 02:01:14;;;;;;;2.35;2.15;;;10.00;99.90;;;;;;4881904;29;20547;-81
2022/09/04 02:04:29;;;;;;;1.53;1.43;;;9.60;99.90;;;;;;4881961;29;20178;-81
2022/09/04 02:07:07;;;;;;;1.90;1.70;;;;;;;;;;4824013;29;20224;-81
2022/09/04 02:09:45;;;;;;;3.37;1.87;;;9.90;99.90;;;;;;4877357;29;20194;-81
2022/09/04 02:12:34;;;;;;;2.13;1.60;;;9.90;99.90;;;;;;4880694;29;20181;-81
2022/09/04 02:15:14;;;;;;;3.07;2.13;;;9.90;99.90;;;;;;4881702;29;20209;-81
2022/09/04 02:18:01;;;;;;;2.67;2.00;;;9.80;99.90;;;;;;4881520;29;20309;-82
2022/09/04 02:20:29;;;;;;;1.73;1.63;;;9.60;99.90;;;;;;4882037;29;20190;-81
2022/09/04 02:23:01;;;;;;;2.33;1.30;;;9.60;99.90;;;;;;4881492;29;20666;-82
2022/09/04 02:25:34;;;;;;;3.63;2.20;;;9.70;99.90;;;;;;4880611;29;20182;-82
2022/09/04 02:28:12;;;;;;;2.07;1.73;;;9.80;99.90;;;;;;4880163;29;20201;-81
2022/09/04 02:31:11;;;;;;;3.17;1.93;;;9.70;99.90;;;;;;4881147;29;20215;-83
2022/09/04 02:33:50;;;;;;;3.27;1.90;;;9.80;99.90;;;;;;4881406;29;20178;-82
2022/09/04 02:36:34;;;;;;;2.77;2.37;;;9.40;99.90;;;;;;4881437;29;20176;-82
2022/09/04 02:39:21;;;;;;;4.00;2.57;;;10.10;99.90;;;;;;4880031;29;20242;-81
2022/09/04 02:41:49;;;;;;;1.97;1.40;;;;;;;;;;4881203;29;20301;-82
2022/09/04 02:44:46;;;;;;;3.70;2.73;;;9.50;99.90;;;;;;4881298;29;20178;-82
2022/09/04 02:47:37;;;;;;;2.90;1.43;;;10.10;99.90;;;;;;4881090;29;20217;-82
2022/09/04 02:50:13;;;;;;;1.87;1.63;;;9.60;99.90;;;;;;4879744;29;20217;-82
2022/09/04 02:53:16;;;;;;;1.13;1.10;;;9.70;99.90;;;;;;4880213;29;20186;-82
2022/09/04 02:56:01;;;;;;;2.47;2.07;;;9.50;99.90;;;;;;4880797;29;20610;-82
2022/09/04 02:59:02;;;;;;;2.40;1.67;;;9.70;99.90;;;;;;4880343;29;20597;-80
2022/09/04 03:01:41;;;;;;;4.20;2.57;;;10.10;99.90;;;;;;4880004;29;20322;-81
2022/09/04 03:04:26;;;;;;;5.47;2.87;;;9.70;99.90;;;;;;4881536;29;20261;-82
2022/09/04 03:07:17;;;;;;;2.33;2.00;;;9.70;99.90;;;;;;4880775;29;20214;-82
2022/09/04 03:09:50;;;;;;;3.37;1.93;;;9.30;99.90;;;;;;4880618;29;20178;-82
2022/09/04 03:12:53;;;;;;;1.57;1.47;;;9.50;99.90;;;;;;4879734;29;20216;-82
2022/09/04 03:15:44;;;;;;;4.13;2.67;;;9.60;99.90;;;;;;4879636;29;20208;-81
2022/09/04 03:18:46;;;;;;;2.63;2.20;;;9.20;99.90;;;;;;4880858;29;20244;-81
2022/09/04 03:21:19;;;;;;;3.03;1.07;;;9.50;99.90;;;;;;4880509;29;20182;-80
2022/09/04 03:23:51;;;;;;;1.67;1.57;;;9.40;99.90;;;;;;4880570;29;20185;-80
2022/09/04 03:26:28;;;;;;;2.23;1.93;;;9.50;99.90;;;;;;4879955;29;20206;-81
2022/09/04 03:29:08;;;;;;;2.60;1.97;;;9.70;99.90;;;;;;4880418;29;20213;-82
2022/09/04 03:31:57;;;;;;;4.90;1.97;;;9.60;99.90;;;;;;4879336;29;20630;-81
2022/09/04 03:34:46;;;;;;;2.30;2.10;;;9.50;99.90;;;;;;4881047;29;20706;-80
2022/09/04 03:37:23;;;;;;;2.13;2.03;;;9.20;99.90;;;;;;4879299;29;20658;-81
2022/09/04 03:40:00;;;;;;;2.33;2.13;;;9.70;99.90;;;;;;4880266;29;20249;-81
2022/09/04 03:42:26;;;;;;;1.57;1.47;;;;;;;;;;4880807;29;20166;-81
2022/09/04 03:45:20;;;;;;;3.40;2.43;;;9.30;99.90;;;;;;4878639;29;20347;-81
2022/09/04 03:48:27;;;;;;;0.90;0.90;;;9.40;99.90;;;;;;4879850;29;20214;-83
2022/09/04 03:51:12;;;;;;;1.93;1.17;;;9.30;99.90;;;;;;4878635;29;20552;-81
2022/09/04 03:54:09;;;;;;;1.10;1.10;;;9.30;99.90;;;;;;4880107;29;20242;-81
2022/09/04 03:56:48;;;;;;;3.13;1.97;;;9.30;99.90;;;;;;4874353;29;20558;-81
2022/09/04 03:59:28;;;;;;;1.63;1.23;;;9.30;99.90;;;;;;4880346;29;20226;-81
2022/09/04 04:01:54;;;;;;;1.23;1.00;;;;;;;;;;4879739;29;20260;-82
2022/09/04 04:04:20;;;;;;;3.13;1.67;;;;;;;;;;4878506;29;20277;-82
2022/09/04 04:06:46;;;;;;;2.00;1.67;;;;;;;;;;4879751;29;20270;-81
2022/09/04 04:09:12;;;;;;;5.50;1.80;;;;;;;;;;4878318;29;20186;-81
2022/09/04 04:12:02;;;;;;;1.50;1.40;;;8.90;99.90;;;;;;4879728;29;20185;-81
2022/09/04 04:15:02;;;;;;;2.00;1.70;;;8.80;99.90;;;;;;4879783;29;20181;-81
2022/09/04 04:17:46;;;;;;;1.60;1.50;;;9.00;99.90;;;;;;4876511;29;20758;-81
2022/09/04 04:20:30;;;;;;;3.30;2.03;;;9.60;99.90;;;;;;4878132;29;20192;-81
2022/09/04 04:22:55;;;;;;;1.57;1.47;;;8.90;99.90;;;;;;4879416;29;20213;-81
2022/09/04 04:25:42;;;;;;;3.17;1.90;;;9.50;99.90;;;;;;4879684;29;20221;-81
2022/09/04 04:28:16;;;;;;;2.07;1.90;;;9.00;99.90;;;;;;4879432;29;20209;-81
2022/09/04 04:30:53;;;;;;;2.77;1.37;;;9.10;99.90;;;;;;4879561;29;20222;-81
2022/09/04 04:33:41;;;;;;;3.10;0.97;;;9.10;99.90;;;;;;4878449;29;20194;-80
2022/09/04 04:36:27;;;;;;;1.80;1.07;;;9.30;99.90;;;;;;4878347;29;20244;-81
2022/09/04 04:39:08;;;;;;;1.43;1.33;;;8.80;99.90;;;;;;4879185;29;20677;-82
2022/09/04 04:42:05;;;;;;;4.90;1.77;;;8.80;99.90;;;;;;4879099;29;20184;-81
2022/09/04 04:45:48;;;;;;;1.13;1.10;;;10.50;99.90;;;;;;4876500;29;20249;-81
2022/09/04 04:47:39;;;;;;;1.90;1.53;;;9.20;99.90;;;;;;4878529;29;20222;-80
2022/09/04 04:50:20;;;;;;;2.60;1.63;;;9.20;99.90;;;;;;4877656;29;20639;-81
2022/09/04 04:53:20;;;;;;;1.87;1.77;;;7.70;99.90;;;;;;4876989;29;20627;-81
2022/09/04 04:56:18;;;;;;;0.97;0.93;;;9.30;99.90;;;;;;4878480;29;20250;-81
2022/09/04 04:59:08;;;;;;;1.23;1.13;;;9.40;99.90;;;;;;4827634;29;20200;-80
2022/09/04 05:01:50;;;;;;;1.20;1.20;;;9.50;99.90;;;;;;4878839;29;20658;-81
2022/09/04 05:04:34;;;;;;;2.60;1.77;;;9.80;99.90;;;;;;4877004;29;20189;-80
2022/09/04 05:07:36;;;;;;;1.27;1.17;;;9.90;99.90;;;;;;4878734;29;20293;-82
2022/09/04 05:10:13;;;;;;;1.93;1.20;;;9.50;99.90;;;;;;4858535;29;20197;-81
2022/09/04 05:12:56;;;;;;;1.13;1.13;;;9.50;99.90;;;;;;4879178;29;20798;-81
2022/09/04 05:15:41;;;;;;;0.90;0.90;;;10.70;99.90;;;;;;4885397;29;20186;-80
2022/09/04 05:18:16;;;;;;;0.80;0.80;;;9.80;99.90;;;;;;4892703;29;20230;-80
2022/09/04 05:21:04;;;;;;;1.53;1.43;;;10.10;99.90;;;;;;4893322;29;20192;-81
2022/09/04 05:23:55;;;;;;;0.90;0.90;;;9.80;99.90;;;;;;4881896;29;20190;-80
2022/09/04 05:26:22;;;;;;;1.27;1.10;;;;;;;;;;4882820;29;20218;-81
2022/09/04 05:28:57;;;;;;;1.17;1.17;;;10.10;99.90;;;;;;4875449;29;20190;-81
2022/09/04 05:31:42;;;;;;;1.90;1.77;;;10.20;99.90;;;;;;4875896;29;20571;-80
2022/09/04 05:34:20;;;;;;;1.17;1.08;;;10.10;99.90;;;;;;4875621;29;20200;-81
2022/09/04 05:36:56;;;;;;;1.07;1.07;;;9.90;99.90;;;;;;4876681;29;20192;-80
2022/09/04 05:39:46;;;;;;;1.40;1.17;;;10.60;99.90;;;;;;4875616;29;20189;-80
2022/09/04 05:42:30;;;;;;;1.63;1.52;;;10.40;99.90;;;;;;4876101;29;20202;-80
2022/09/04 05:45:14;;;;;;;3.27;1.70;;;10.60;99.90;;;;;;4877242;29;20182;-80
2022/09/04 05:48:25;;;;;;;2.58;1.50;;;10.80;99.90;;;;;;4876416;29;20231;-81
2022/09/04 05:51:06;;;;;;;2.30;1.50;;;10.90;99.90;;;;;;4817601;29;20198;-82
2022/09/04 05:53:37;;;;;;;1.75;1.02;;;11.40;99.90;;;;;;4831411;29;20223;-82
2022/09/04 05:56:38;;;;;;;1.67;1.45;;;11.00;99.90;;;;;;4862717;29;20213;-83
2022/09/04 05:59:22;;;;;;;1.90;1.23;;;11.20;99.90;;;;;;4879558;29;20543;-81
2022/09/04 06:02:08;;;;;;;1.50;1.40;;;11.20;99.90;;;;;;4880273;29;20186;-81
2022/09/04 06:04:49;;;;;;;1.15;0.98;;;11.30;99.90;;;;;;4877523;29;20239;-82
2022/09/04 06:07:26;;;;;;;1.40;1.33;;;11.50;99.90;;;;;;4876477;29;20293;-81
2022/09/04 06:10:36;;;;;;;3.15;2.03;;;11.30;99.90;;;;;;4876211;29;20181;-82
2022/09/04 06:13:12;;;;;;;1.75;1.63;;;11.40;99.90;;;;;;4869178;29;20202;-81
2022/09/04 06:15:53;;;;;;;1.67;1.30;;;12.00;99.90;;;;;;4877753;29;20669;-81
2022/09/04 06:18:54;;;;;;;1.45;1.35;;;11.90;99.90;;;;;;4877962;29;20229;-81
2022/09/04 06:21:54;;;;;;;0.95;0.70;;;12.30;99.90;;;;;;4874883;29;20197;-81
2022/09/04 06:24:52;;;;;;;0.77;0.77;;;12.50;99.90;;;;;;4892152;29;20189;-81
2022/09/04 06:27:18;;;;;;;2.90;1.70;;;;;;;;;;4836619;29;20214;-82
2022/09/04 06:30:02;;;;;;;1.52;1.42;;;12.60;99.90;;;;;;4878410;29;20182;-81
2022/09/04 06:32:54;;;;;;;1.38;1.05;;;13.00;99.90;;;;;;4877441;29;20634;-82
2022/09/04 06:35:42;;;;;;;1.42;1.10;;;13.20;99.90;;;;;;4878167;29;20183;-81
2022/09/04 06:38:32;;;;;;;1.33;1.10;;;13.30;99.90;;;;;;4877565;29;20206;-81
2022/09/04 06:41:27;;;;;;;0.88;0.88;;;9.50;99.90;;;;;;4877522;29;20185;-82
2022/09/04 06:43:54;;;;;;;1.60;1.48;;;13.60;99.90;;;;;;4877774;29;20182;-81
2022/09/04 06:46:47;;;;;;;1.00;0.95;;;13.50;99.90;;;;;;4879379;29;20214;-82
2022/09/04 06:49:22;;;;;;;1.10;1.02;;;13.80;99.90;;;;;;4878878;29;20182;-82
2022/09/04 06:52:04;;;;;;;1.38;1.27;;;14.10;99.90;;;;;;4878753;29;20189;-83
2022/09/04 06:54:49;;;;;;;1.20;1.08;;;13.90;99.90;;;;;;4876689;29;20722;-82
2022/09/04 06:57:52;;;;;;;1.17;1.08;;;14.60;99.90;;;;;;4877266;29;20222;-81
2022/09/04 07:00:19;;;;;;;0.88;0.80;;;14.50;99.90;;;;;;4878455;29;20189;-81
2022/09/04 07:03:10;;;;;;;1.27;0.90;;;14.90;99.90;;;;;;4878849;29;20218;-81
2022/09/04 07:05:57;;;;;;;0.95;0.95;;;14.40;99.90;;;;;;4878571;29;20233;-80
2022/09/04 07:09:21;;;;;;;2.00;1.40;;;14.70;99.90;;;;;;4876992;29;20213;-81
2022/09/04 07:12:05;;;;;;;0.98;0.98;;;15.00;99.90;;;;;;4787463;29;20284;-82
2022/09/04 07:14:55;;;;;;;1.98;1.08;;;15.50;99.90;;;;;;4869695;29;20197;-82
2022/09/04 07:17:33;;;;;;;1.30;0.80;;;15.30;99.90;;;;;;4876851;29;20226;-82
2022/09/04 07:19:59;;;;;;;1.05;0.95;;;;;;;;;;4877858;29;20685;-83
2022/09/04 07:22:42;;;;;;;1.30;0.95;;;15.20;99.90;;;;;;4877567;29;20222;-81
2022/09/04 07:25:22;;;;;;;1.45;0.88;;;15.30;99.90;;;;;;4878640;29;20186;-80
2022/09/04 07:28:13;;;;;;;0.98;0.90;;;15.80;99.90;;;;;;4880828;29;20245;-80
2022/09/04 07:30:49;;;;;;;1.67;1.10;;;15.50;99.90;;;;;;4877418;29;20218;-81
2022/09/04 07:33:30;;;;;;;1.95;0.73;;;15.80;99.90;;;;;;4878822;29;20181;-82
2022/09/04 07:43:57;;;;;;;1.15;0.80;;;16.70;99.90;;;;;;4927956;23;20265;-81
2022/09/04 07:46:39;;;;;;;1.13;0.82;;;16.60;99.90;;;;;;4871024;29;20206;-81
2022/09/04 07:49:29;;;;;;;1.48;0.82;;;16.50;99.90;;;;;;4860748;29;20191;-80
2022/09/04 07:52:29;;;;;;;0.73;0.73;;;16.90;99.90;;;;;;4866013;29;20210;-81
2022/09/04 07:55:26;;;;;;;1.92;1.10;;;17.00;99.90;;;;;;4868119;29;20643;-80
2022/09/04 07:58:10;;;;;;;0.70;0.68;;;16.90;99.90;;;;;;4851262;29;20217;-81
2022/09/04 08:00:58;;;;;;;1.08;0.88;;;17.30;99.90;;;;;;4875101;29;20203;-81
2022/09/04 08:03:30;;;;;;;0.77;0.77;;;17.20;99.90;;;;;;4860376;29;20190;-81
2022/09/04 08:06:28;;;;;;;1.60;1.42;;;16.80;99.90;;;;;;4879792;29;20241;-81
2022/09/04 08:09:00;;;;;;;1.40;1.10;;;17.60;99.90;;;;;;4865061;29;20213;-81
2022/09/04 08:11:51;;;;;;;0.88;0.80;;;16.90;99.90;;;;;;4869570;29;20270;-81
2022/09/04 08:14:17;;;;;;;1.60;1.20;;;17.50;99.90;;;;;;4861246;29;20214;-80
2022/09/04 08:16:46;;;;;;;1.35;1.10;;;16.90;99.90;;;;;;4865957;29;20217;-79
2022/09/04 08:20:08;;;;;;;1.15;0.70;;;17.40;99.90;;;;;;4871076;29;20199;-80
2022/09/04 08:22:56;;;;;;;1.02;0.80;;;17.30;99.90;;;;;;4855972;29;20186;-81
2022/09/04 08:25:22;;;;;;;0.82;0.73;;;;;;;;;;4866865;29;20190;-80
2022/09/04 08:28:05;;;;;;;0.80;0.77;;;17.50;99.90;;;;;;4873405;29;20625;-81
2022/09/04 08:31:27;;;;;;;1.25;0.70;;;17.50;99.90;;;;;;4879474;29;20225;-81
2022/09/04 08:34:06;;;;;;;0.70;0.70;;;17.60;99.90;;;;;;4820890;29;20217;-80
2022/09/04 08:37:01;;;;;;;1.98;0.80;;;17.40;99.90;;;;;;4858710;29;20198;-80
2022/09/04 08:39:52;;;;;;;1.38;0.80;;;17.60;99.90;;;;;;4863547;29;20206;-80
2022/09/04 08:42:45;;;;;;;0.52;0.52;;;17.90;99.90;;;;;;4860547;29;20248;-80
2022/09/04 08:45:38;;;;;;;0.55;0.55;;;17.70;99.90;;;;;;4862613;29;20206;-81
2022/09/04 08:48:06;;;;;;;0.70;0.70;;;;;;;;;;4860843;29;20297;-81
2022/09/04 08:56:05;;;;;;;0.57;0.57;;;17.90;99.90;;;;;;5658897;23;20256;-80
2022/09/04 08:58:58;;;;;;;1.35;0.93;;;18.40;99.90;;;;;;4858785;29;20280;-80
2022/09/04 09:01:43;;;;;;;1.25;0.70;;;18.40;99.90;;;;;;4860491;29;20178;-80
2022/09/04 09:04:11;;;;;;;0.88;0.60;;;18.40;99.90;;;;;;4861303;29;20190;-80
2022/09/04 09:06:57;;;;;;;7.43;1.27;;;18.80;99.90;;;;;;4860483;29;20236;-80
2022/09/04 09:09:56;;;;;;;1.98;0.85;;;18.50;99.90;;;;;;4860392;29;20719;-79
2022/09/04 09:12:43;;;;;;;0.70;0.70;;;18.30;99.90;;;;;;4859236;29;20214;-81
2022/09/04 09:15:37;;;;;;;0.90;0.63;;;18.10;99.90;;;;;;4860355;29;20179;-79
2022/09/04 09:18:21;;;;;;;1.42;0.90;;;18.60;99.90;;;;;;4860221;29;20194;-80
2022/09/04 09:21:05;;;;;;;0.88;0.85;;;18.40;99.90;;;;;;4859146;29;20273;-80
2022/09/04 09:23:52;;;;;;;0.70;0.70;;;19.00;99.90;;;;;;4860466;29;20186;-81
2022/09/04 09:26:34;;;;;;;1.05;0.88;;;18.80;99.90;;;;;;4863927;29;20189;-80
2022/09/04 09:29:34;;;;;;;2.97;0.90;;;18.80;99.90;;;;;;4864195;29;20178;-80
2022/09/04 09:32:35;;;;;;;0.70;0.70;;;19.20;99.90;;;;;;4862731;29;20637;-81
2022/09/04 09:35:11;;;;;;;0.80;0.60;;;19.30;99.90;;;;;;4848914;29;20209;-81
2022/09/04 09:38:33;;;;;;;0.95;0.75;;;19.50;99.90;;;;;;4881443;29;20276;-81
2022/09/04 09:41:05;;;;;;;0.73;0.73;;;19.60;99.90;;;;;;4815949;29;20646;-81
2022/09/04 09:44:04;;;;;;;1.85;0.52;;;20.20;99.90;;;;;;4821906;29;20188;-82
2022/09/04 09:46:37;;;;;;;1.05;0.88;;;19.80;99.90;;;;;;4874033;29;20254;-81
2022/09/04 09:49:21;;;;;;;1.02;1.00;;;19.90;99.90;;;;;;4883391;29;20181;-81
2022/09/04 09:52:21;;;;;;;0.80;0.80;;;20.20;99.90;;;;;;4882225;29;20186;-82
2022/09/04 09:55:15;;;;;;;1.70;0.70;;;20.40;99.90;;;;;;4881292;29;20231;-82
2022/09/04 09:58:29;;;;;;;1.00;1.00;;;20.40;99.90;;;;;;4882156;29;20287;-82
2022/09/04 10:00:57;;;;;;;1.38;0.93;;;;;;;;;;4882484;29;20359;-82
2022/09/04 10:03:26;;;;;;;1.10;1.00;;;20.90;99.90;;;;;;4880818;29;20593;-82
2022/09/04 10:06:15;;;;;;;1.23;0.77;;;20.00;99.90;;;;;;4880416;29;20594;-81
2022/09/04 10:08:52;;;;;;;1.25;1.10;;;19.90;99.90;;;;;;4882048;29;20230;-82
2022/09/04 10:11:48;;;;;;;1.35;1.02;;;20.10;99.90;;;;;;4880713;29;20207;-81
2022/09/04 10:14:14;;;;;;;1.30;1.00;;;;;;;;;;4879999;29;20189;-81
2022/09/04 10:16:56;;;;;;;1.27;1.10;;;19.30;99.90;;;;;;4881858;29;20648;-82
2022/09/04 10:19:35;;;;;;;1.35;1.20;;;18.90;99.90;;;;;;4880585;29;20658;-83
2022/09/04 10:22:31;;;;;;;1.10;0.90;;;19.30;99.90;;;;;;4880108;29;20587;-83
2022/09/04 10:25:15;;;;;;;1.55;0.93;;;18.00;99.90;;;;;;4880272;29;20217;-81
2022/09/04 10:27:56;;;;;;;0.80;0.80;;;18.80;99.90;;;;;;4879420;29;20226;-82
2022/09/04 10:30:23;;;;;;;1.13;1.02;;;18.70;99.90;;;;;;4880046;29;20273;-81
2022/09/04 10:32:50;;;;;;;1.52;1.20;;;;;;;;;;4880072;29;20280;-83
2022/09/04 10:35:24;;;;;;;1.42;1.23;;;18.80;99.90;;;;;;4881037;29;20577;-81
2022/09/04 10:38:33;;;;;;;1.13;1.00;;;18.60;99.90;;;;;;4880814;29;20182;-81
2022/09/04 10:41:42;;;;;;;3.70;1.30;;;18.70;99.90;;;;;;4879930;29;20264;-82
2022/09/04 10:44:10;;;;;;;1.13;1.02;;;18.60;99.90;;;;;;4858113;29;20569;-82
2022/09/04 10:46:58;;;;;;;2.25;1.30;;;18.70;99.90;;;;;;4880952;29;20709;-83
2022/09/04 10:49:42;;;;;;;2.28;1.48;;;18.50;99.90;;;;;;4879438;29;20189;-83
2022/09/04 10:52:29;;;;;;;2.22;1.52;;;18.60;99.90;;;;;;4879482;29;20186;-83
2022/09/04 10:55:13;;;;;;;1.83;1.63;;;18.70;99.90;;;;;;4879914;29;20325;-82
2022/09/04 10:58:13;;;;;;;0.98;0.90;;;18.80;99.90;;;;;;4880586;29;20690;-82
2022/09/04 11:01:02;;;;;;;1.60;1.02;;;18.90;99.90;;;;;;4879265;29;20178;-82
2022/09/04 11:03:50;;;;;;;2.50;1.20;;;19.30;99.90;;;;;;4880536;29;20179;-83
2022/09/04 11:06:37;;;;;;;1.27;1.13;;;18.70;99.90;;;;;;4880628;29;20293;-81
2022/09/04 11:09:42;;;;;;;2.40;1.30;;;19.30;99.90;;;;;;4881009;29;20234;-84
2022/09/04 11:12:17;;;;;;;3.17;1.95;;;18.80;99.90;;;;;;4879395;29;20197;-83
2022/09/04 11:14:43;;;;;;;2.00;1.42;;;;;;;;;;4879272;29;20182;-82
2022/09/04 11:17:47;;;;;;;2.65;1.70;;;19.40;99.90;;;;;;4880634;29;20555;-84
2022/09/04 11:20:40;;;;;;;2.17;1.33;;;19.50;99.90;;;;;;4879251;29;20254;-83
2022/09/04 11:23:38;;;;;;;1.65;1.50;;;18.70;99.90;;;;;;4880477;29;20178;-82
2022/09/04 11:26:38;;;;;;;2.63;1.55;;;19.60;99.90;;;;;;4882622;29;20182;-82
2022/09/04 11:29:11;;;;;;;1.45;1.30;;;;;;;;;;4882838;29;20721;-84
2022/09/04 11:31:47;;;;;;;1.90;1.42;;;19.50;99.90;;;;;;4878974;29;20640;-83
2022/09/04 11:34:34;;;;;;;1.35;1.20;;;19.20;99.90;;;;;;4879378;29;20585;-83
2022/09/04 11:37:14;;;;;;;5.50;1.52;;;19.90;99.90;;;;;;4880490;29;20272;-83
2022/09/04 11:39:40;;;;;;;1.73;1.48;;;;;;;;;;4879112;29;20217;-82
2022/09/04 11:42:07;;;;;;;2.50;1.80;;;;;;;;;;4879035;29;20266;-84
2022/09/04 11:44:54;;;;;;;1.70;1.25;;;20.30;99.90;;;;;;4880247;29;20190;-83
2022/09/04 11:47:42;;;;;;;2.53;1.30;;;19.80;99.90;;;;;;4878375;29;20237;-83
2022/09/04 11:50:35;;;;;;;1.77;1.38;;;19.90;99.90;;;;;;4879520;29;20682;-82
2022/09/04 11:53:01;;;;;;;1.15;1.05;;;;;;;;;;4876665;29;20586;-83
2022/09/04 11:55:45;;;;;;;2.05;1.30;;;19.90;99.90;;;;;;4879667;29;20237;-83
2022/09/04 11:58:11;;;;;;;1.73;1.63;;;;;;;;;;4879072;29;20198;-81
2022/09/04 12:01:15;;;;;;;2.63;1.83;;;20.30;99.90;;;;;;4879187;29;20206;-81
2022/09/04 12:04:21;;;;;;;1.30;1.10;;;20.50;99.90;;;;;;4878325;29;20650;-84
2022/09/04 12:07:12;;;;;;;0.77;0.73;;;20.40;99.90;;;;;;4879992;29;20269;-82
2022/09/04 12:09:57;;;;;;;1.42;1.30;;;20.70;99.90;;;;;;4880231;29;20222;-82
2022/09/04 12:13:16;;;;;;;1.58;1.38;;;21.00;99.90;;;;;;4878177;29;20606;-82
2022/09/04 12:16:03;;;;;;;3.17;1.20;;;20.80;99.90;;;;;;4821347;29;20184;-85
2022/09/04 12:18:53;;;;;;;1.73;1.33;;;20.60;99.90;;;;;;4874180;29;20597;-83
2022/09/04 12:21:49;;;;;;;2.90;1.55;;;19.80;99.90;;;;;;4878356;29;20182;-83
2022/09/04 12:24:49;;;;;;;1.63;1.23;;;20.30;99.90;;;;;;4878665;29;20170;-82
2022/09/04 12:27:56;;;;;;;1.65;0.93;;;19.90;99.90;;;;;;4877628;29;20308;-82
2022/09/04 12:30:31;;;;;;;3.45;1.55;;;20.10;99.90;;;;;;4858954;29;20193;-82
2022/09/04 12:33:18;;;;;;;1.40;1.10;;;19.70;99.90;;;;;;4876609;29;20192;-83
2022/09/04 12:36:09;;;;;;;2.13;1.70;;;19.80;99.90;;;;;;4877989;29;20209;-83
2022/09/04 12:39:06;;;;;;;1.23;1.00;;;20.40;99.90;;;;;;4878061;29;20253;-86
2022/09/04 12:41:50;;;;;;;1.77;1.20;;;20.40;99.90;;;;;;4877812;29;20221;-83
2022/09/04 12:44:54;;;;;;;2.13;1.35;;;20.80;99.90;;;;;;4878724;29;20192;-83
2022/09/04 12:47:42;;;;;;;1.08;0.98;;;21.00;99.90;;;;;;4879241;29;20209;-82
2022/09/04 12:50:14;;;;;;;1.42;1.15;;;21.20;99.10;;;;;;4879768;29;20670;-83
2022/09/04 12:53:08;;;;;;;2.40;1.30;;;20.90;99.90;;;;;;4884609;29;20186;-82
2022/09/04 12:55:51;;;;;;;1.27;1.13;;;21.30;98.50;;;;;;4886471;29;20221;-82
2022/09/04 12:58:35;;;;;;;3.60;1.17;;;21.20;98.90;;;;;;4883494;29;20189;-83
2022/09/04 13:01:30;;;;;;;3.67;1.00;;;21.10;99.90;;;;;;4881901;29;20572;-84
2022/09/04 13:04:12;;;;;;;1.67;0.85;;;21.50;99.90;;;;;;4880744;29;20209;-83
2022/09/04 13:07:13;;;;;;;1.73;1.00;;;21.50;99.90;;;;;;4882542;29;20236;-82
2022/09/04 13:09:51;;;;;;;0.85;0.70;;;21.30;97.60;;;;;;4880921;29;20567;-85
2022/09/04 13:12:32;;;;;;;1.60;0.90;;;21.30;97.10;;;;;;4881189;29;20322;-81
2022/09/04 13:15:09;;;;;;;1.20;0.90;;;21.40;96.20;;;;;;4882820;29;20184;-82
2022/09/04 13:17:42;;;;;;;1.60;1.27;;;21.20;96.20;;;;;;4880756;29;20591;-82
2022/09/04 13:20:11;;;;;;;1.25;0.98;;;20.60;99.90;;;;;;4882259;29;20177;-81
2022/09/04 13:23:27;;;;;;;2.53;1.23;;;21.30;99.90;;;;;;4882053;29;20182;-81
2022/09/04 13:26:18;;;;;;;2.22;1.23;;;21.10;99.90;;;;;;4825135;29;20236;-81
2022/09/04 13:28:55;;;;;;;1.80;1.15;;;20.30;99.90;;;;;;4882657;29;20166;-82
2022/09/04 13:31:24;;;;;;;1.23;0.98;;;20.80;99.90;;;;;;4881717;29;20245;-82
2022/09/04 13:33:52;;;;;;;1.63;1.10;;;;;;;;;;4882345;29;20188;-83
2022/09/04 13:36:35;;;;;;;1.60;1.23;;;20.40;98.00;;;;;;4882703;29;20178;-82
2022/09/04 13:39:13;;;;;;;1.35;1.25;;;20.90;99.90;;;;;;4882205;29;20185;-84
2022/09/04 13:41:57;;;;;;;0.90;0.90;;;20.40;99.90;;;;;;4882619;29;20181;-83
2022/09/04 13:44:37;;;;;;;1.95;1.33;;;20.50;99.90;;;;;;4882767;29;20178;-83
2022/09/04 13:47:08;;;;;;;1.98;1.40;;;20.50;97.50;;;;;;4881345;29;20210;-83
2022/09/04 13:49:49;;;;;;;1.60;1.20;;;20.40;99.90;;;;;;4879990;29;20234;-83
2022/09/04 13:52:23;;;;;;;1.63;1.25;;;20.20;96.50;;;;;;4882094;29;20227;-82
2022/09/04 13:54:57;;;;;;;1.70;1.20;;;20.10;97.60;;;;;;4881407;29;20189;-83
2022/09/04 13:57:27;;;;;;;1.23;1.13;;;20.00;97.50;;;;;;4880302;29;20242;-84
2022/09/04 13:59:58;;;;;;;2.72;1.80;;;19.90;98.40;;;;;;4880334;29;20190;-84
2022/09/04 14:02:26;;;;;;;2.45;1.02;;;19.90;98.60;;;;;;4866557;29;20186;-81
2022/09/04 14:04:59;;;;;;;1.63;1.38;;;19.90;99.40;;;;;;4876452;29;20187;-82
2022/09/04 14:07:34;;;;;;;1.35;1.20;;;19.80;99.90;;;;;;4877349;29;20738;-83
2022/09/04 14:10:03;;;;;;;1.50;0.90;;;19.90;99.80;;;;;;4877604;29;20173;-82
2022/09/04 14:12:41;;;;;;;1.25;1.13;;;20.10;99.90;;;;;;4877944;29;20186;-82
2022/09/04 14:15:29;;;;;;;1.48;1.30;;;20.00;99.90;;;;;;4879705;29;20186;-83
2022/09/04 14:18:38;;;;;;;3.40;1.63;;;20.40;99.90;;;;;;4880002;29;20193;-83
2022/09/04 14:21:36;;;;;;;2.55;1.55;;;19.50;99.90;;;;;;4843637;29;20194;-82
2022/09/04 14:24:31;;;;;;;1.17;1.08;;;19.90;99.90;;;;;;4878775;29;20190;-81
2022/09/04 14:27:21;;;;;;;0.80;0.75;;;19.80;98.00;;;;;;4876999;29;20441;-83
2022/09/04 14:30:14;;;;;;;3.58;1.33;;;19.90;97.90;;;;;;4877164;29;20647;-83
2022/09/04 14:33:04;;;;;;;2.17;1.20;;;20.00;99.90;;;;;;4878182;29;20186;-80
2022/09/04 14:35:35;;;;;;;2.63;1.30;;;20.10;99.90;;;;;;4877660;29;20191;-82
2022/09/04 14:38:13;;;;;;;1.23;1.13;;;;;;;;;;4878257;29;20189;-79
2022/09/04 14:41:20;;;;;;;2.75;1.40;;;19.90;96.50;;;;;;4878075;29;20273;-81
2022/09/04 14:44:15;;;;;;;1.20;0.98;;;19.90;98.90;;;;;;4878349;29;20173;-81